Time;durP1;ratioP1;P1;durP2;ratioP2;P2;SDS_P1;SDS_P2;PMS_P1;PMS_P2;Temp;Humidity;BMP_temperature;BMP_pressure;BME280_temperature;BME280_humidity;BME280_pressure;Samples;Min_cycle;Max_cycle;Signal;HPM_P1;HPM_P2
2022/07/23 16:06:05;;;;;;;5.63;5.07;;;32.90;48.20;;;;;;4955944;28;20483;-65
2022/07/23 16:08:31;;;;;;;9.63;4.68;;;32.90;49.10;;;;;;4969983;28;21005;-68
2022/07/23 16:10:58;;;;;;;21.65;5.88;;;32.80;47.30;;;;;;4961383;28;20547;-69
2022/07/23 16:13:27;;;;;;;8.43;5.68;;;32.40;46.70;;;;;;4979773;28;20633;-71
2022/07/23 16:15:53;;;;;;;5.57;5.03;;;32.10;47.00;;;;;;4984758;28;20051;-70
2022/07/23 16:18:22;;;;;;;10.85;5.22;;;31.90;47.40;;;;;;4973029;28;20034;-70
2022/07/23 16:20:49;;;;;;;6.53;5.30;;;31.70;48.10;;;;;;4982989;28;20089;-71
2022/07/23 16:23:15;;;;;;;10.75;5.20;;;31.50;49.80;;;;;;4984844;28;20018;-71
2022/07/23 16:25:40;;;;;;;6.60;5.32;;;31.30;51.30;;;;;;4969838;28;21279;-70
2022/07/23 16:28:07;;;;;;;6.47;5.70;;;31.20;52.10;;;;;;4974207;28;20096;-71
2022/07/23 16:30:33;;;;;;;8.25;5.70;;;31.10;53.40;;;;;;4978546;28;20038;-73
2022/07/23 16:32:59;;;;;;;13.35;5.85;;;30.90;53.60;;;;;;4974047;28;20026;-71
2022/07/23 16:35:25;;;;;;;6.40;5.55;;;30.80;54.70;;;;;;4975253;28;20026;-71
2022/07/23 16:37:51;;;;;;;8.93;5.53;;;30.70;55.40;;;;;;4979599;28;20057;-71
2022/07/23 16:40:17;;;;;;;8.55;5.45;;;30.60;55.80;;;;;;4977634;28;20022;-82
2022/07/23 16:42:43;;;;;;;6.78;4.30;;;30.50;56.20;;;;;;4986036;28;20032;-76
2022/07/23 16:47:30;;;;;;;11.23;4.00;;;30.50;55.90;;;;;;4977396;27;1358285;-76
2022/07/23 16:49:56;;;;;;;8.40;4.72;;;30.60;55.80;;;;;;5061489;28;20575;-77
2022/07/23 16:52:22;;;;;;;12.05;4.72;;;30.70;55.60;;;;;;5065865;28;20798;-81
2022/07/23 16:54:48;;;;;;;9.57;4.40;;;30.70;55.40;;;;;;5077766;28;20115;-78
2022/07/23 16:57:14;;;;;;;9.35;3.85;;;30.70;55.50;;;;;;5073490;28;20034;-77
2022/07/23 16:59:40;;;;;;;7.90;4.30;;;30.70;55.60;;;;;;5073220;28;20111;-79
2022/07/23 17:02:05;;;;;;;7.22;4.07;;;30.70;55.50;;;;;;5075505;28;20039;-77
2022/07/23 17:04:31;;;;;;;6.95;4.22;;;30.70;55.10;;;;;;5079230;28;20028;-82
2022/07/23 17:07:02;;;;;;;7.43;3.80;;;30.70;54.80;;;;;;5049964;28;20162;-83
2022/07/23 17:09:29;;;;;;;9.07;4.15;;;30.60;53.90;;;;;;5082482;28;20921;-79
2022/07/23 17:11:55;;;;;;;13.68;4.65;;;30.60;53.40;;;;;;5072495;28;20048;-75
2022/07/23 17:14:21;;;;;;;13.63;4.45;;;30.40;56.80;;;;;;5075125;28;20115;-78
2022/07/23 17:16:47;;;;;;;7.82;4.13;;;30.00;60.60;;;;;;5069205;28;20454;-77
2022/07/23 17:19:13;;;;;;;6.35;3.95;;;29.40;63.00;;;;;;5077168;28;20118;-74
2022/07/23 17:21:38;;;;;;;7.63;4.22;;;29.00;64.80;;;;;;5079975;28;20061;-75
2022/07/23 17:24:04;;;;;;;8.52;4.97;;;28.60;67.50;;;;;;5074741;28;20054;-77
2022/07/23 17:26:32;;;;;;;4.65;4.22;;;28.30;69.90;;;;;;5080360;28;20054;-75
2022/07/23 17:28:58;;;;;;;8.93;4.65;;;28.00;69.80;;;;;;5078334;28;20017;-75
2022/07/23 17:31:23;;;;;;;7.28;4.38;;;27.80;71.90;;;;;;5078403;28;20739;-75
2022/07/23 17:33:49;;;;;;;6.38;5.15;;;27.60;74.90;;;;;;5073041;28;20408;-75
2022/07/23 17:36:15;;;;;;;8.05;4.63;;;27.50;75.80;;;;;;5076522;28;20028;-75
2022/07/23 17:38:41;;;;;;;5.47;4.85;;;27.50;76.60;;;;;;5077317;28;20059;-78
2022/07/23 17:41:07;;;;;;;7.68;4.60;;;27.50;76.90;;;;;;5074190;28;20487;-76
2022/07/23 17:43:33;;;;;;;9.10;4.47;;;27.50;76.70;;;;;;5077145;28;20090;-77
2022/07/23 17:45:58;;;;;;;6.45;4.60;;;27.50;76.20;;;;;;5074254;28;20045;-78
2022/07/23 17:48:25;;;;;;;4.38;3.97;;;27.50;76.50;;;;;;5073893;28;20032;-79
2022/07/23 17:50:51;;;;;;;5.63;4.57;;;27.60;76.90;;;;;;5060704;28;20134;-80
2022/07/23 17:53:17;;;;;;;8.02;4.63;;;27.60;77.10;;;;;;5064136;28;20028;-78
2022/07/23 17:55:43;;;;;;;9.43;4.47;;;27.60;80.60;;;;;;5078270;28;20563;-78
2022/07/23 17:58:08;;;;;;;11.98;4.90;;;27.50;82.20;;;;;;5081785;28;20116;-79
2022/07/23 18:00:36;;;;;;;5.15;4.70;;;27.50;83.60;;;;;;5071962;28;20498;-79
2022/07/23 18:03:02;;;;;;;11.35;5.72;;;27.40;84.70;;;;;;5071142;28;20028;-79
2022/07/23 18:05:28;;;;;;;7.70;4.20;;;27.40;85.50;;;;;;5067150;28;20063;-79
2022/07/23 18:07:54;;;;;;;5.40;4.50;;;27.30;85.80;;;;;;5053217;28;20047;-79
2022/07/23 18:10:21;;;;;;;9.45;4.85;;;27.20;87.00;;;;;;5075761;28;20040;-79
2022/07/23 18:12:46;;;;;;;8.02;5.07;;;27.20;88.00;;;;;;5072266;28;20132;-79
2022/07/23 18:15:13;;;;;;;5.72;4.70;;;27.10;89.20;;;;;;5077218;28;20099;-77
2022/07/23 18:17:39;;;;;;;6.13;5.20;;;26.90;89.90;;;;;;5077883;28;20445;-79
2022/07/23 18:20:06;;;;;;;9.05;5.50;;;26.90;90.80;;;;;;5063371;28;20480;-78
2022/07/23 18:22:33;;;;;;;6.15;5.00;;;26.90;91.00;;;;;;5067492;28;20040;-77
2022/07/23 18:24:58;;;;;;;5.43;4.93;;;26.80;91.30;;;;;;5078490;28;20024;-78
2022/07/23 18:27:24;;;;;;;12.82;4.97;;;26.70;91.30;;;;;;5072047;28;20063;-78
2022/07/23 18:29:50;;;;;;;6.65;5.47;;;26.70;91.50;;;;;;5072321;28;20032;-77
2022/07/23 18:32:15;;;;;;;6.05;4.63;;;26.60;91.40;;;;;;5077688;28;20396;-77
2022/07/23 18:34:41;;;;;;;5.82;4.97;;;26.60;91.20;;;;;;5058704;28;20373;-78
2022/07/23 18:37:08;;;;;;;5.93;5.20;;;26.60;91.10;;;;;;5073636;28;20028;-77
2022/07/23 18:39:34;;;;;;;7.30;5.55;;;26.60;91.00;;;;;;5072904;28;20185;-77
2022/07/23 18:42:03;;;;;;;6.40;5.55;;;26.50;91.00;;;;;;5075123;28;20037;-77
2022/07/23 18:44:29;;;;;;;6.82;5.03;;;26.40;91.00;;;;;;5076977;28;20024;-76
2022/07/23 18:46:55;;;;;;;5.53;5.13;;;26.30;91.00;;;;;;5066261;28;20082;-79
2022/07/23 18:49:21;;;;;;;8.02;5.70;;;26.20;91.00;;;;;;5073379;28;20035;-77
2022/07/23 18:51:47;;;;;;;8.00;5.65;;;26.20;90.90;;;;;;5079413;28;20032;-77
2022/07/23 18:54:13;;;;;;;7.72;5.30;;;26.20;90.70;;;;;;5076535;28;20392;-75
2022/07/23 18:56:40;;;;;;;5.53;4.97;;;26.20;90.30;;;;;;5071571;28;20039;-76
2022/07/23 18:59:06;;;;;;;7.07;5.20;;;26.20;89.10;;;;;;5073843;28;21058;-77
2022/07/23 19:01:32;;;;;;;8.80;5.45;;;26.30;88.40;;;;;;5067017;28;20032;-77
2022/07/23 19:03:58;;;;;;;5.65;5.15;;;26.40;85.40;;;;;;5077996;28;20652;-75
2022/07/23 19:06:25;;;;;;;5.50;5.00;;;26.50;84.10;;;;;;5074356;28;20119;-75
2022/07/23 19:08:52;;;;;;;5.82;5.00;;;26.60;82.90;;;;;;5068551;28;20069;-77
2022/07/23 19:11:18;;;;;;;6.45;5.18;;;26.70;80.50;;;;;;5077522;28;20040;-76
2022/07/23 19:13:44;;;;;;;6.95;5.25;;;26.90;79.20;;;;;;5072872;28;20036;-75
2022/07/23 19:16:10;;;;;;;6.85;5.60;;;27.00;77.40;;;;;;5073638;28;20032;-76
2022/07/23 19:18:36;;;;;;;5.40;4.90;;;27.10;76.40;;;;;;5074242;28;20020;-77
2022/07/23 19:21:02;;;;;;;5.40;4.90;;;27.20;74.00;;;;;;5076840;28;20028;-76
2022/07/23 19:23:28;;;;;;;6.38;5.25;;;27.30;72.80;;;;;;5071857;28;20366;-79
2022/07/23 19:25:53;;;;;;;5.70;5.20;;;27.40;72.20;;;;;;5073097;28;20040;-80
2022/07/23 19:28:19;;;;;;;5.90;4.80;;;27.40;71.40;;;;;;5076022;28;20032;-80
2022/07/23 19:30:45;;;;;;;5.68;4.72;;;27.50;70.60;;;;;;5074339;28;20510;-79
2022/07/23 19:33:10;;;;;;;13.82;5.45;;;27.60;69.80;;;;;;5047747;28;20040;-76
2022/07/23 19:35:37;;;;;;;5.82;4.97;;;27.60;69.80;;;;;;5066216;28;20050;-82
2022/07/23 19:38:03;;;;;;;5.82;5.13;;;27.60;69.50;;;;;;5066679;28;20472;-80
2022/07/23 19:40:29;;;;;;;6.50;4.80;;;27.60;69.20;;;;;;5073651;28;20093;-78
2022/07/23 19:42:54;;;;;;;5.72;4.97;;;27.60;69.20;;;;;;5070968;28;21743;-78
2022/07/23 19:45:21;;;;;;;5.05;4.35;;;27.60;68.60;;;;;;5073479;28;20032;-78
2022/07/23 19:47:46;;;;;;;4.80;4.40;;;27.60;68.30;;;;;;5076899;28;20299;-81
2022/07/23 19:50:13;;;;;;;6.53;4.50;;;27.60;68.00;;;;;;5073226;28;20109;-80
2022/07/23 19:52:39;;;;;;;5.15;4.72;;;27.60;68.20;;;;;;5078173;28;20492;-75
2022/07/23 19:55:06;;;;;;;7.57;4.28;;;27.60;68.30;;;;;;5065360;28;20029;-78
2022/07/23 19:57:32;;;;;;;7.53;4.70;;;27.60;67.70;;;;;;5072773;28;20031;-79
2022/07/23 19:59:57;;;;;;;7.80;4.30;;;27.60;67.50;;;;;;5072248;28;20024;-80
2022/07/23 20:02:23;;;;;;;5.00;4.60;;;27.60;67.50;;;;;;5073525;28;20053;-77
2022/07/23 20:04:49;;;;;;;5.25;4.75;;;27.60;67.40;;;;;;5074843;28;20032;-80
2022/07/23 20:07:15;;;;;;;8.43;4.40;;;27.60;67.50;;;;;;5077297;28;20166;-77
2022/07/23 20:09:40;;;;;;;5.47;4.15;;;27.60;67.20;;;;;;5074461;28;20934;-78
2022/07/23 20:12:07;;;;;;;5.47;4.18;;;27.60;67.10;;;;;;5074462;28;20036;-77
2022/07/23 20:14:33;;;;;;;10.05;4.63;;;27.50;67.20;;;;;;5072661;28;20044;-80
2022/07/23 20:16:59;;;;;;;7.43;4.80;;;27.60;66.90;;;;;;5073022;28;20037;-73
2022/07/23 20:19:25;;;;;;;5.35;4.53;;;27.60;67.00;;;;;;5072628;28;20680;-78
2022/07/23 20:21:50;;;;;;;7.25;5.47;;;27.60;66.90;;;;;;5072305;28;20498;-80
2022/07/23 20:24:19;;;;;;;10.70;5.18;;;27.60;67.00;;;;;;5072035;28;20039;-80
2022/07/23 20:26:46;;;;;;;5.20;4.63;;;27.60;67.20;;;;;;5071239;28;20673;-79
2022/07/23 20:29:12;;;;;;;17.70;5.00;;;27.60;67.30;;;;;;5074394;28;20082;-80
2022/07/23 20:31:38;;;;;;;12.48;5.18;;;27.60;67.30;;;;;;5075139;28;20504;-77
2022/07/23 20:34:04;;;;;;;5.38;4.88;;;27.50;67.50;;;;;;5073955;28;20028;-80
2022/07/23 20:36:29;;;;;;;5.50;5.00;;;27.50;68.20;;;;;;5051734;28;20028;-80
2022/07/23 20:38:55;;;;;;;6.47;5.30;;;27.50;68.20;;;;;;5053637;28;20024;-78
2022/07/23 20:41:21;;;;;;;5.97;5.18;;;27.40;67.90;;;;;;5062551;28;20780;-78
2022/07/23 20:43:46;;;;;;;8.70;5.20;;;27.50;67.90;;;;;;5062913;28;20703;-78
2022/07/23 20:46:12;;;;;;;8.55;4.90;;;27.50;68.30;;;;;;5067715;28;20052;-77
2022/07/23 20:48:38;;;;;;;5.40;4.90;;;27.40;68.60;;;;;;5061323;28;20613;-79
2022/07/23 20:51:03;;;;;;;5.93;5.25;;;27.40;69.20;;;;;;5063400;28;20933;-77
2022/07/23 20:53:29;;;;;;;8.88;5.05;;;27.40;68.80;;;;;;5065515;28;20834;-81
2022/07/23 20:55:55;;;;;;;6.20;5.03;;;27.40;69.20;;;;;;5050004;28;20024;-81
2022/07/23 20:58:21;;;;;;;5.55;4.93;;;27.40;68.70;;;;;;5071485;28;20051;-80
2022/07/23 21:00:47;;;;;;;7.50;4.97;;;27.40;69.10;;;;;;5067989;28;20560;-81
2022/07/23 21:03:13;;;;;;;5.95;5.18;;;27.40;69.70;;;;;;5068848;28;20036;-78
2022/07/23 21:05:40;;;;;;;5.25;4.72;;;27.40;68.80;;;;;;5060158;28;20032;-77
2022/07/23 21:08:05;;;;;;;5.45;4.95;;;27.40;68.70;;;;;;5064546;28;20526;-77
2022/07/23 21:10:31;;;;;;;8.23;5.13;;;27.40;69.10;;;;;;5064872;28;20041;-76
2022/07/23 21:12:57;;;;;;;5.20;4.70;;;27.30;68.90;;;;;;5065547;28;20467;-76
2022/07/23 21:15:22;;;;;;;5.22;4.72;;;27.30;69.40;;;;;;5049575;28;20654;-77
2022/07/23 21:17:48;;;;;;;5.45;4.95;;;27.30;69.90;;;;;;5066487;28;20043;-77
2022/07/23 21:20:15;;;;;;;17.33;4.93;;;27.30;70.00;;;;;;5066583;28;20678;-77
2022/07/23 21:22:42;;;;;;;5.40;4.97;;;27.30;70.40;;;;;;5064829;28;20753;-78
2022/07/23 21:25:08;;;;;;;6.47;5.20;;;27.30;70.90;;;;;;5062008;28;20104;-79
2022/07/23 21:27:34;;;;;;;8.45;4.95;;;27.20;70.80;;;;;;5048891;28;20044;-79
2022/07/23 21:29:59;;;;;;;7.10;5.05;;;27.20;70.70;;;;;;5070250;28;20036;-79
2022/07/23 21:32:26;;;;;;;5.80;5.20;;;27.20;71.00;;;;;;5068612;28;20036;-79
2022/07/23 21:34:52;;;;;;;7.32;5.28;;;27.10;71.80;;;;;;5054768;28;20035;-79
2022/07/23 21:37:18;;;;;;;5.60;5.10;;;27.10;72.00;;;;;;5071566;28;20028;-79
2022/07/23 21:39:43;;;;;;;5.57;5.15;;;27.10;72.40;;;;;;5078229;28;20077;-79
2022/07/23 21:42:09;;;;;;;5.55;4.93;;;27.10;72.90;;;;;;5074730;28;20040;-78
2022/07/23 21:44:35;;;;;;;7.65;5.53;;;27.00;72.50;;;;;;5076269;28;20082;-78
2022/07/23 21:47:01;;;;;;;6.18;5.38;;;27.00;73.40;;;;;;5076836;28;20043;-78
2022/07/23 21:49:26;;;;;;;7.45;4.82;;;27.00;73.60;;;;;;5065786;28;20020;-78
2022/07/23 21:51:52;;;;;;;6.10;5.50;;;26.90;74.20;;;;;;5068556;28;20040;-79
2022/07/23 21:54:18;;;;;;;5.90;5.43;;;26.80;74.40;;;;;;5066793;28;20141;-78
2022/07/23 21:56:44;;;;;;;6.38;5.18;;;26.80;74.50;;;;;;5068476;28;20123;-78
2022/07/23 21:59:10;;;;;;;8.07;5.55;;;26.70;74.80;;;;;;5066237;28;20081;-79
2022/07/23 22:01:35;;;;;;;5.40;4.90;;;26.70;75.10;;;;;;5066408;28;20548;-78
2022/07/23 22:04:04;;;;;;;5.35;4.85;;;26.70;75.10;;;;;;5068626;28;20037;-75
2022/07/23 22:06:31;;;;;;;6.00;5.15;;;26.70;75.20;;;;;;5067191;28;20100;-76
2022/07/23 22:08:56;;;;;;;6.90;4.95;;;26.70;75.30;;;;;;5065844;28;20598;-77
2022/07/23 22:11:22;;;;;;;7.85;5.65;;;26.60;75.20;;;;;;5064480;28;20047;-78
2022/07/23 22:13:48;;;;;;;6.20;5.55;;;26.70;75.60;;;;;;5050356;28;20046;-78
2022/07/23 22:16:13;;;;;;;6.40;5.65;;;26.60;75.80;;;;;;5066908;28;21259;-79
2022/07/23 22:18:39;;;;;;;6.07;5.57;;;26.60;76.20;;;;;;5071268;28;20024;-76
2022/07/23 22:21:05;;;;;;;5.72;5.22;;;26.60;76.10;;;;;;5064085;28;20042;-75
2022/07/23 22:23:30;;;;;;;9.82;5.47;;;26.60;76.20;;;;;;5068232;28;20641;-75
2022/07/23 22:25:56;;;;;;;6.38;5.32;;;26.60;76.20;;;;;;5065845;28;20044;-78
2022/07/23 22:28:22;;;;;;;7.40;5.55;;;26.60;76.50;;;;;;5068891;28;20128;-77
2022/07/23 22:30:49;;;;;;;6.00;5.40;;;26.60;76.70;;;;;;5064955;28;20499;-77
2022/07/23 22:33:15;;;;;;;6.05;5.53;;;26.50;76.90;;;;;;5070731;28;20032;-76
2022/07/23 22:35:41;;;;;;;7.55;5.72;;;26.50;77.10;;;;;;5064719;28;20028;-79
2022/07/23 22:38:06;;;;;;;5.82;5.30;;;26.40;76.80;;;;;;5067928;28;20047;-79
2022/07/23 22:40:32;;;;;;;6.40;5.57;;;26.40;77.10;;;;;;5063916;28;20116;-78
2022/07/23 22:42:58;;;;;;;6.38;5.15;;;26.40;77.20;;;;;;5064999;28;20043;-78
2022/07/23 22:45:24;;;;;;;5.95;4.95;;;26.40;77.40;;;;;;5049547;28;20030;-77
2022/07/23 22:47:49;;;;;;;5.78;5.18;;;26.40;77.50;;;;;;5062045;28;20032;-79
2022/07/23 22:50:15;;;;;;;8.68;5.35;;;26.40;78.30;;;;;;5049484;28;20099;-79
2022/07/23 22:52:41;;;;;;;5.70;5.20;;;26.30;78.30;;;;;;5070510;28;20044;-79
2022/07/23 22:55:08;;;;;;;10.55;5.28;;;26.20;78.30;;;;;;5063252;28;20028;-79
2022/07/23 22:57:34;;;;;;;6.18;5.28;;;26.20;78.20;;;;;;5069042;28;20031;-80
2022/07/23 23:00:00;;;;;;;4.90;4.47;;;26.20;78.40;;;;;;5067498;28;20025;-80
2022/07/23 23:02:25;;;;;;;5.32;4.82;;;26.20;78.70;;;;;;5060202;28;20115;-81
2022/07/23 23:04:51;;;;;;;5.35;4.95;;;26.10;78.80;;;;;;5064347;28;20029;-78
2022/07/23 23:07:17;;;;;;;6.40;4.95;;;26.10;78.40;;;;;;5060585;28;20527;-74
2022/07/23 23:09:42;;;;;;;5.40;4.90;;;26.10;77.80;;;;;;5062338;28;20067;-75
2022/07/23 23:12:08;;;;;;;5.95;5.35;;;26.00;77.30;;;;;;5067867;28;20374;-76
2022/07/23 23:14:35;;;;;;;5.43;4.97;;;26.10;77.40;;;;;;5032081;28;20036;-74
2022/07/23 23:17:00;;;;;;;6.03;5.40;;;26.10;77.30;;;;;;5068259;28;20055;-75
2022/07/23 23:19:26;;;;;;;5.85;5.15;;;26.20;77.00;;;;;;5069998;28;20586;-69
2022/07/23 23:21:52;;;;;;;5.22;4.70;;;26.20;76.90;;;;;;5069939;28;20492;-69
2022/07/23 23:24:18;;;;;;;5.88;5.18;;;26.20;77.10;;;;;;5067220;28;20024;-70
2022/07/23 23:26:43;;;;;;;6.07;5.53;;;26.20;76.90;;;;;;5064496;28;20093;-69
2022/07/23 23:29:09;;;;;;;5.65;5.15;;;26.20;76.70;;;;;;5071857;28;20425;-69
2022/07/23 23:31:35;;;;;;;7.85;5.78;;;26.20;76.80;;;;;;5065020;28;20036;-69
2022/07/23 23:34:00;;;;;;;6.50;5.90;;;26.10;78.00;;;;;;5067906;28;20741;-70
2022/07/23 23:36:26;;;;;;;8.25;5.60;;;26.00;79.00;;;;;;5070118;28;20120;-70
2022/07/23 23:38:52;;;;;;;5.80;5.30;;;25.90;79.30;;;;;;5067109;28;20032;-70
2022/07/23 23:41:18;;;;;;;6.25;5.65;;;25.80;80.30;;;;;;5067642;28;20445;-70
2022/07/23 23:43:43;;;;;;;6.22;5.50;;;25.80;81.10;;;;;;5067350;28;20028;-70
2022/07/23 23:46:09;;;;;;;5.78;5.28;;;25.60;82.40;;;;;;5072831;28;20143;-71
2022/07/23 23:48:34;;;;;;;6.85;5.95;;;25.60;82.60;;;;;;5072214;28;20016;-71
2022/07/23 23:51:00;;;;;;;9.68;5.50;;;25.40;83.80;;;;;;5072277;28;20115;-70
2022/07/23 23:53:26;;;;;;;6.50;5.93;;;25.30;83.70;;;;;;5071042;28;20024;-70
2022/07/23 23:55:52;;;;;;;6.25;5.75;;;25.30;84.70;;;;;;5065659;28;20139;-71
2022/07/23 23:58:17;;;;;;;8.25;6.10;;;25.10;85.50;;;;;;5070133;28;20885;-70
